Time;durP1;ratioP1;P1;durP2;ratioP2;P2;SDS_P1;SDS_P2;PMS_P1;PMS_P2;Temp;Humidity;BMP_temperature;BMP_pressure;BME280_temperature;BME280_humidity;BME280_pressure;Samples;Min_cycle;Max_cycle;Signal;HPM_P1;HPM_P2
2022/06/12 00:00:52;;;;;;;155.48;141.55;;;;;;;19.16;100.00;100675.94;5037208;28;20053;-84
2022/06/12 00:03:32;;;;;;;138.57;125.50;;;;;;;19.17;100.00;100677.56;5054998;28;20048;-85
2022/06/12 00:06:04;;;;;;;137.00;124.07;;;;;;;19.22;100.00;100674.91;5042374;28;20049;-85
2022/06/12 00:08:33;;;;;;;165.82;151.00;;;;;;;19.12;100.00;100679.41;5055789;28;20056;-86
2022/06/12 00:11:04;;;;;;;168.52;153.50;;;;;;;19.11;100.00;100675.91;5055745;28;20127;-85
2022/06/12 00:13:36;;;;;;;165.65;151.45;;;;;;;19.07;100.00;100674.03;5055995;28;20451;-82
2022/06/12 00:16:05;;;;;;;169.68;155.13;;;;;;;19.30;100.00;100680.84;5036410;28;20457;-86
2022/06/12 00:18:32;;;;;;;153.68;140.35;;;;;;;19.19;100.00;100680.81;5050795;28;20481;-83
2022/06/12 00:21:13;;;;;;;159.10;145.23;;;;;;;19.06;100.00;100667.00;5055462;28;20057;-85
2022/06/12 00:24:09;;;;;;;144.20;131.30;;;;;;;19.20;100.00;100670.84;5037872;28;20046;-83
2022/06/12 00:26:40;;;;;;;150.27;137.50;;;;;;;19.26;100.00;100685.94;5044472;28;20050;-84
2022/06/12 00:29:12;;;;;;;151.63;138.82;;;;;;;19.17;100.00;100680.25;5050302;28;20060;-82
2022/06/12 00:31:42;;;;;;;143.90;131.40;;;;;;;19.17;100.00;100679.44;5041156;28;20167;-84
2022/06/12 00:34:12;;;;;;;145.35;132.75;;;;;;;19.07;100.00;100674.84;5045879;28;20095;-83
2022/06/12 00:36:40;;;;;;;147.98;135.05;;;;;;;18.99;100.00;100668.06;5049638;28;20045;-84
2022/06/12 00:39:15;;;;;;;157.27;144.65;;;;;;;19.25;100.00;100667.38;5035011;28;20049;-84
2022/06/12 00:41:45;;;;;;;134.35;123.00;;;;;;;19.15;100.00;100662.75;5035277;28;20049;-83
2022/06/12 00:44:18;;;;;;;143.10;131.15;;;;;;;19.20;100.00;100665.47;5036869;28;20065;-84
2022/06/12 00:46:49;;;;;;;149.98;137.38;;;;;;;18.97;100.00;100664.00;5039360;28;20041;-83
2022/06/12 00:49:22;;;;;;;135.35;123.88;;;;;;;19.05;100.00;100658.13;5042385;28;20111;-84
2022/06/12 00:51:55;;;;;;;146.90;134.88;;;;;;;19.04;100.00;100659.22;5051923;28;20489;-84
2022/06/12 00:54:22;;;;;;;151.80;138.90;;;;;;;19.02;100.00;100658.66;5040609;28;20045;-85
2022/06/12 00:56:53;;;;;;;138.25;126.53;;;;;;;18.98;100.00;100660.28;5056734;28;20049;-83
2022/06/12 00:59:32;;;;;;;153.02;139.88;;;;;;;19.09;100.00;100655.72;5051082;28;20479;-83
2022/06/12 01:02:01;;;;;;;151.35;138.60;;;;;;;19.08;100.00;100660.31;5048724;28;20386;-85
2022/06/12 01:07:17;;;;;;;142.05;129.75;;;;;;;19.15;100.00;100655.50;4988044;28;20049;-83
2022/06/12 01:09:47;;;;;;;144.77;132.35;;;;;;;19.19;100.00;100650.38;5037775;28;20528;-84
2022/06/12 01:12:17;;;;;;;144.20;131.50;;;;;;;19.20;100.00;100654.69;5062144;28;20049;-85
2022/06/12 01:14:53;;;;;;;130.52;118.60;;;;;;;19.34;100.00;100650.44;5048033;28;20045;-84
2022/06/12 01:17:22;;;;;;;128.85;117.88;;;;;;;19.26;100.00;100648.25;5050499;28;20059;-85
2022/06/12 01:19:54;;;;;;;130.70;119.13;;;;;;;19.32;100.00;100649.06;5051422;28;20484;-83
2022/06/12 01:23:02;;;;;;;136.30;123.90;;;;;;;19.27;100.00;100640.97;5048065;28;20068;-84
2022/06/12 01:26:00;;;;;;;168.20;154.05;;;;;;;19.38;100.00;100638.03;5048904;28;20303;-86
2022/06/12 01:28:44;;;;;;;163.30;149.48;;;;;;;19.42;100.00;100647.19;5059085;28;20056;-84
2022/06/12 01:31:43;;;;;;;137.25;124.88;;;;;;;19.37;100.00;100644.50;5041506;28;20080;-85
2022/06/12 01:34:35;;;;;;;148.70;135.57;;;;;;;19.37;100.00;100641.81;5034371;28;20087;-81
2022/06/12 01:37:25;;;;;;;152.25;139.55;;;;;;;19.43;100.00;100631.88;5043549;28;20413;-84
2022/06/12 01:40:03;;;;;;;155.05;141.65;;;;;;;19.37;100.00;100638.31;5040590;28;20519;-85
2022/06/12 01:42:46;;;;;;;151.40;138.27;;;;;;;19.30;100.00;100637.75;5052487;28;20079;-84
2022/06/12 01:45:24;;;;;;;145.30;132.38;;;;;;;19.26;100.00;100636.66;5044922;28;20068;-82
2022/06/12 01:48:00;;;;;;;149.43;136.52;;;;;;;19.33;100.00;100642.59;5037669;28;20430;-81
2022/06/12 01:50:40;;;;;;;137.68;125.15;;;;;;;19.37;100.00;100641.81;5052821;28;20464;-84
2022/06/12 01:53:16;;;;;;;174.35;160.20;;;;;;;19.28;100.00;100642.59;5037813;28;20053;-82
2022/06/12 01:55:54;;;;;;;143.45;130.45;;;;;;;19.27;100.00;100644.47;5051599;28;20425;-84
2022/06/12 01:58:33;;;;;;;141.40;128.80;;;;;;;19.22;100.00;100637.19;5058900;28;20114;-84
2022/06/12 02:01:09;;;;;;;142.77;130.32;;;;;;;19.28;100.00;100645.31;5154494;23;20053;-84
2022/06/12 02:03:44;;;;;;;148.32;135.10;;;;;;;19.17;100.00;100639.88;5008347;28;20053;-84
2022/06/12 02:06:21;;;;;;;147.20;134.20;;;;;;;19.17;100.00;100639.06;5018469;28;20120;-83
2022/06/12 02:08:54;;;;;;;169.55;154.85;;;;;;;19.09;100.00;100645.78;5005313;28;20057;-83
2022/06/12 02:14:20;;;;;;;145.40;132.35;;;;;;;19.15;100.00;100650.13;5016895;28;20509;-84
2022/06/12 02:16:54;;;;;;;146.98;133.95;;;;;;;19.10;100.00;100646.59;5012324;28;20459;-83
2022/06/12 02:19:26;;;;;;;149.75;136.35;;;;;;;19.09;100.00;100648.47;5004381;28;20060;-84
2022/06/12 02:22:02;;;;;;;154.98;141.23;;;;;;;19.15;100.00;100654.66;5017637;28;20050;-85
2022/06/12 02:24:33;;;;;;;155.02;141.23;;;;;;;19.17;100.00;100649.84;5020669;28;20046;-85
2022/06/12 02:27:05;;;;;;;159.88;145.45;;;;;;;19.26;100.00;100652.81;5000994;28;20046;-84
2022/06/12 02:29:38;;;;;;;161.73;147.20;;;;;;;19.24;100.00;100655.78;5003070;28;20057;-83
2022/06/12 02:32:17;;;;;;;170.43;155.77;;;;;;;19.52;100.00;100648.31;5009571;28;20364;-84
2022/06/12 02:34:56;;;;;;;157.73;143.43;;;;;;;19.21;100.00;100654.44;5017534;28;20064;-83
2022/06/12 02:37:28;;;;;;;170.38;155.48;;;;;;;19.26;100.00;100660.91;5019042;28;20093;-84
2022/06/12 02:39:59;;;;;;;143.20;130.18;;;;;;;19.25;100.00;100660.09;5012007;28;20050;-83
2022/06/12 02:42:34;;;;;;;155.23;141.40;;;;;;;19.21;100.00;100656.28;5000037;28;20042;-84
2022/06/12 02:45:07;;;;;;;163.15;148.68;;;;;;;19.23;100.00;100660.34;5011083;28;20056;-84
2022/06/12 02:47:40;;;;;;;167.13;152.75;;;;;;;19.29;100.00;100658.47;5006751;28;20054;-84
2022/06/12 02:50:11;;;;;;;150.68;137.07;;;;;;;19.30;100.00;100660.09;5014925;28;20053;-85
2022/06/12 02:52:44;;;;;;;138.52;125.72;;;;;;;19.19;100.00;100659.28;5018819;28;20058;-83
2022/06/12 02:55:25;;;;;;;140.63;127.55;;;;;;;19.29;100.00;100661.19;5015267;28;20041;-84
2022/06/12 02:58:11;;;;;;;132.77;120.80;;;;;;;19.30;100.00;100665.47;5017361;28;20061;-85
2022/06/12 03:00:44;;;;;;;132.95;120.57;;;;;;;19.25;100.00;100653.91;5018113;28;20053;-82
2022/06/12 03:03:25;;;;;;;134.70;122.40;;;;;;;19.29;100.00;100657.69;5018158;28;20081;-84
2022/06/12 03:05:58;;;;;;;121.05;109.25;;;;;;;19.41;100.00;100655.56;5010573;28;20081;-83
2022/06/12 03:08:31;;;;;;;131.02;119.13;;;;;;;19.33;100.00;100654.19;5004299;28;20050;-85
2022/06/12 03:11:04;;;;;;;127.07;115.53;;;;;;;19.25;100.00;100653.91;4996891;28;20490;-85
2022/06/12 03:13:33;;;;;;;129.32;117.68;;;;;;;19.23;100.00;100651.47;4998292;28;20051;-83
2022/06/12 03:16:02;;;;;;;135.00;123.45;;;;;;;19.36;100.00;100648.25;5015346;28;20045;-84
2022/06/12 03:18:36;;;;;;;130.10;118.70;;;;;;;19.28;100.00;100653.38;5014826;28;20062;-85
2022/06/12 03:21:16;;;;;;;128.45;116.97;;;;;;;19.01;100.00;100651.66;4999828;28;20399;-85
2022/06/12 03:24:03;;;;;;;127.20;116.00;;;;;;;19.26;100.00;100647.44;4997071;28;20058;-85
2022/06/12 03:26:38;;;;;;;127.60;116.47;;;;;;;19.17;100.00;100647.16;4996632;28;20054;-84
2022/06/12 03:29:12;;;;;;;135.25;123.53;;;;;;;19.13;100.00;100646.88;5002805;28;20046;-83
2022/06/12 03:31:47;;;;;;;129.32;118.03;;;;;;;19.20;100.00;100646.63;5015086;28;20104;-85
2022/06/12 03:34:28;;;;;;;132.13;120.43;;;;;;;19.10;100.00;100651.97;5013260;28;20068;-85
2022/06/12 03:37:06;;;;;;;138.55;126.57;;;;;;;19.17;100.00;100647.16;4998204;28;20479;-86
2022/06/12 03:39:42;;;;;;;138.45;126.40;;;;;;;19.23;100.00;100648.78;5003720;28;20540;-85
2022/06/12 03:42:18;;;;;;;127.22;115.93;;;;;;;19.25;100.00;100641.25;4997549;28;20089;-84
2022/06/12 03:44:57;;;;;;;127.00;115.85;;;;;;;19.30;100.00;100643.94;5001494;28;20051;-84
2022/06/12 03:47:33;;;;;;;128.82;117.88;;;;;;;19.38;100.00;100650.69;5008456;28;20064;-81
2022/06/12 03:50:09;;;;;;;123.13;112.30;;;;;;;19.33;100.00;100642.59;5018772;28;20046;-84
2022/06/12 03:52:42;;;;;;;131.73;119.85;;;;;;;19.39;100.00;100641.53;5012685;28;20112;-82
2022/06/12 03:55:21;;;;;;;134.63;122.82;;;;;;;19.30;100.00;100652.00;5012255;28;20050;-83
2022/06/12 03:57:53;;;;;;;136.30;124.50;;;;;;;19.48;100.00;100648.00;5008652;28;20045;-83
2022/06/12 04:00:27;;;;;;;141.18;128.82;;;;;;;19.38;100.00;100643.44;5017413;28;20050;-85
2022/06/12 04:02:59;;;;;;;132.68;121.18;;;;;;;19.48;100.00;100636.44;5018314;28;20481;-85
2022/06/12 04:05:45;;;;;;;139.37;127.90;;;;;;;19.42;100.00;100638.31;5019453;28;20120;-85
2022/06/12 04:08:22;;;;;;;140.88;128.73;;;;;;;19.76;100.00;100646.75;5014178;28;20316;-84
2022/06/12 04:10:51;;;;;;;134.23;122.47;;;;;;;19.64;100.00;100646.19;5017641;28;20050;-85
2022/06/12 04:13:22;;;;;;;129.73;118.22;;;;;;;19.58;100.00;100642.66;5016140;28;20454;-82
2022/06/12 04:15:54;;;;;;;130.18;119.30;;;;;;;19.58;100.00;100642.66;4996877;28;20141;-86
2022/06/12 04:18:30;;;;;;;125.75;114.68;;;;;;;19.48;100.00;100644.53;5017879;28;20077;-86
2022/06/12 04:21:02;;;;;;;128.00;117.25;;;;;;;19.53;100.00;100639.94;5015611;28;20060;-83
2022/06/12 04:23:41;;;;;;;139.60;127.68;;;;;;;19.52;100.00;100648.31;5004336;28;20054;-83
2022/06/12 04:26:26;;;;;;;131.10;119.82;;;;;;;19.43;100.00;100642.66;5005297;28;20051;-83
2022/06/12 04:28:58;;;;;;;128.70;117.50;;;;;;;19.61;100.00;100644.81;5015965;28;20053;-85
2022/06/12 04:31:32;;;;;;;131.93;120.53;;;;;;;19.54;100.00;100656.91;5014421;28;20053;-83
2022/06/12 04:34:16;;;;;;;126.75;115.53;;;;;;;19.85;100.00;100655.13;5009592;28;20506;-83
2022/06/12 04:36:49;;;;;;;132.25;120.65;;;;;;;19.62;100.00;100651.81;5006765;28;20037;-84
2022/06/12 04:39:24;;;;;;;127.03;116.18;;;;;;;19.76;100.00;100654.00;5012438;28;20123;-85
2022/06/12 04:41:52;;;;;;;123.70;112.93;;;;;;;19.93;100.00;100651.06;5023720;28;20053;-84
2022/06/12 04:44:21;;;;;;;136.45;124.97;;;;;;;19.75;100.00;100660.47;5021434;28;20053;-83
2022/06/12 04:46:51;;;;;;;126.93;116.28;;;;;;;19.78;100.00;100657.25;5019538;28;20053;-83
2022/06/12 04:49:21;;;;;;;131.75;121.00;;;;;;;19.57;100.00;100662.56;5019294;28;20053;-85
2022/06/12 04:51:58;;;;;;;129.48;118.47;;;;;;;19.58;100.00;100663.41;4317718;28;10000753;-84
2022/06/12 04:54:26;;;;;;;119.70;109.57;;;;;;;19.88;100.00;100662.66;5015417;28;20467;-84
2022/06/12 04:57:01;;;;;;;123.85;113.45;;;;;;;19.92;100.00;100671.81;5016236;28;20042;-85
2022/06/12 04:59:28;;;;;;;132.27;121.43;;;;;;;19.66;100.00;100677.16;5018829;28;20106;-82
2022/06/12 05:01:56;;;;;;;138.38;126.47;;;;;;;19.88;100.00;100676.94;5016793;28;20058;-83
2022/06/12 05:04:26;;;;;;;132.05;120.10;;;;;;;20.22;100.00;100676.41;5015499;28;20054;-83
2022/06/12 05:06:53;;;;;;;131.23;120.47;;;;;;;20.33;100.00;100669.09;5008402;28;20042;-82
2022/06/12 05:09:25;;;;;;;135.73;124.28;;;;;;;20.53;100.00;100674.47;5010960;28;20486;-84
2022/06/12 05:11:56;;;;;;;127.68;116.78;;;;;;;20.28;100.00;100678.00;5016020;28;20081;-85
2022/06/12 05:14:24;;;;;;;123.35;112.53;;;;;;;20.16;100.00;100682.06;5014746;28;20053;-85
2022/06/12 05:16:54;;;;;;;130.15;118.70;;;;;;;20.56;100.00;100686.63;5013143;28;20050;-83
2022/06/12 05:19:24;;;;;;;125.95;115.10;;;;;;;20.23;100.00;100680.69;5012093;28;20054;-84
2022/06/12 05:21:52;;;;;;;128.82;118.13;;;;;;;20.37;100.00;100686.38;5010073;28;20057;-84
2022/06/12 05:24:19;;;;;;;133.07;122.28;;;;;;;20.17;100.00;100689.06;5015292;28;20108;-83
2022/06/12 05:26:50;;;;;;;134.70;124.00;;;;;;;20.45;100.00;100685.78;5014575;28;20057;-86
2022/06/12 05:29:22;;;;;;;121.65;111.53;;;;;;;20.91;100.00;100688.44;5015329;28;20048;-85
2022/06/12 05:31:52;;;;;;;124.30;113.93;;;;;;;20.41;100.00;100695.50;5013915;28;20061;-84
2022/06/12 05:34:19;;;;;;;131.63;120.85;;;;;;;20.34;100.00;100695.00;5018321;28;20050;-86
2022/06/12 05:36:46;;;;;;;120.57;110.63;;;;;;;20.81;100.00;100694.63;5014613;28;20118;-84
2022/06/12 05:39:14;;;;;;;119.03;109.38;;;;;;;21.03;100.00;100688.91;5017948;28;20108;-87
2022/06/12 05:41:42;;;;;;;116.50;107.00;;;;;;;20.81;100.00;100688.44;5011923;28;20058;-84
2022/06/12 05:44:10;;;;;;;112.20;102.95;;;;;;;20.75;100.00;100695.75;5008448;28;20046;-86
2022/06/12 05:46:37;;;;;;;104.38;95.80;;;;;;;20.57;100.00;100705.25;5005254;28;20061;-85
2022/06/12 05:49:05;;;;;;;94.15;86.55;;;;;;;20.98;100.00;100699.72;5016079;28;20099;-85
2022/06/12 05:51:33;;;;;;;106.90;98.10;;;;;;;20.42;100.00;100707.09;5015688;28;20093;-87
2022/06/12 05:54:00;;;;;;;105.30;96.20;;;;;;;20.61;100.00;100707.41;5017109;28;20050;-84
2022/06/12 05:56:30;;;;;;;101.25;92.63;;;;;;;20.95;100.00;100708.38;5012132;28;20053;-85
2022/06/12 05:58:59;;;;;;;92.53;85.00;;;;;;;21.28;100.00;100706.09;5010993;28;20046;-85
2022/06/12 06:01:28;;;;;;;103.60;93.82;;;;;;;20.96;100.00;100715.38;5011066;28;20132;-86
2022/06/12 06:03:55;;;;;;;113.40;103.50;;;;;;;20.85;100.00;100726.47;5007302;28;20050;-86
2022/06/12 06:06:29;;;;;;;90.20;82.60;;;;;;;21.47;100.00;100720.59;5006536;28;20046;-86
2022/06/12 06:08:56;;;;;;;105.88;96.82;;;;;;;20.85;100.00;100732.72;5008654;28;20046;-84
2022/06/12 06:11:23;;;;;;;118.95;108.47;;;;;;;20.81;100.00;100724.34;5012580;28;20046;-85
2022/06/12 06:13:49;;;;;;;115.20;105.60;;;;;;;20.83;100.00;100726.78;5008950;28;20042;-88
2022/06/12 06:16:17;;;;;;;121.00;110.70;;;;;;;20.94;100.00;100733.78;5004565;28;20544;-85
2022/06/12 06:18:46;;;;;;;110.53;101.45;;;;;;;21.13;100.00;100730.47;5009748;28;20426;-84
2022/06/12 06:21:14;;;;;;;117.13;107.82;;;;;;;21.06;100.00;100744.25;5003835;28;20053;-85
2022/06/12 06:23:41;;;;;;;115.82;105.78;;;;;;;20.96;100.00;100731.56;5001156;28;20370;-86
2022/06/12 06:26:09;;;;;;;115.40;105.38;;;;;;;20.94;100.00;100731.06;5004657;28;20046;-85
2022/06/12 06:28:40;;;;;;;122.85;111.55;;;;;;;20.96;100.00;100736.19;5012036;28;20061;-85
2022/06/12 06:31:16;;;;;;;112.80;102.88;;;;;;;21.16;100.00;100730.72;5007471;28;20081;-86
2022/06/12 06:40:31;;;;;;;103.93;94.10;;;;;;;21.27;100.00;100720.66;4985982;28;20133;-84
2022/06/12 06:43:00;;;;;;;97.78;89.57;;;;;;;21.19;100.00;100718.56;4989921;28;20054;-84
2022/06/12 06:48:12;;;;;;;109.20;99.20;;;;;;;21.04;100.00;100717.53;4988622;28;20063;-85
2022/06/12 06:50:40;;;;;;;113.70;103.68;;;;;;;21.11;100.00;100722.63;4991144;28;20047;-83
2022/06/12 06:53:09;;;;;;;122.90;111.45;;;;;;;21.17;100.00;100729.63;4989366;28;20050;-84
2022/06/12 06:55:37;;;;;;;126.30;114.40;;;;;;;21.20;100.00;100725.56;4985841;28;20054;-84
2022/06/12 06:58:09;;;;;;;128.88;117.45;;;;;;;21.10;100.00;100726.41;4986552;28;20052;-84
2022/06/12 07:00:38;;;;;;;117.53;107.35;;;;;;;21.07;100.00;100721.56;4982824;28;20410;-85
2022/06/12 07:03:07;;;;;;;121.93;110.90;;;;;;;21.22;100.00;100731.50;4983135;28;20051;-86
2022/06/12 07:05:34;;;;;;;118.20;107.53;;;;;;;21.17;100.00;100736.91;4994192;28;20058;-86
2022/06/12 07:08:01;;;;;;;118.43;107.22;;;;;;;21.22;100.00;100731.50;5000768;28;20049;-84
2022/06/12 07:10:31;;;;;;;111.28;100.63;;;;;;;21.23;100.00;100723.13;4985205;28;20069;-85
2022/06/12 07:12:59;;;;;;;119.78;108.43;;;;;;;20.88;100.00;100732.16;4984095;28;20104;-84
2022/06/12 07:15:28;;;;;;;108.07;98.18;;;;;;;21.13;100.00;100725.88;4986145;28;20149;-84
2022/06/12 07:17:56;;;;;;;104.88;95.68;;;;;;;20.77;100.00;100731.38;4991535;28;20158;-84
2022/06/12 07:20:25;;;;;;;93.57;85.15;;;;;;;21.18;100.00;100733.13;4987548;28;20058;-84
2022/06/12 07:22:52;;;;;;;116.63;106.25;;;;;;;20.85;100.00;100727.31;4984788;28;20475;-84
2022/06/12 07:25:20;;;;;;;116.88;106.47;;;;;;;21.08;100.00;100731.28;4990389;28;20132;-85
2022/06/12 07:27:48;;;;;;;112.28;102.03;;;;;;;21.17;100.00;100726.13;4987491;28;20060;-85
2022/06/12 07:30:22;;;;;;;100.45;91.32;;;;;;;21.18;100.00;100747.47;4985086;28;20124;-84
2022/06/12 07:32:50;;;;;;;113.18;103.15;;;;;;;20.63;100.00;100746.50;4995218;28;20054;-83
2022/06/12 07:35:17;;;;;;;137.48;125.50;;;;;;;20.14;100.00;100731.66;5002475;28;20082;-83
2022/06/12 07:37:45;;;;;;;133.05;121.55;;;;;;;20.34;100.00;100738.94;4986509;28;20057;-83
2022/06/12 07:40:17;;;;;;;123.53;112.93;;;;;;;21.03;100.00;100731.31;4993888;28;20512;-85
2022/06/12 07:42:44;;;;;;;113.35;104.00;;;;;;;21.19;100.00;100737.47;4995514;28;20054;-83
2022/06/12 07:45:11;;;;;;;112.80;102.20;;;;;;;21.41;100.00;100737.13;4997958;28;20050;-84
2022/06/12 07:47:40;;;;;;;117.53;107.35;;;;;;;21.34;100.00;100736.59;4992764;28;20046;-83
2022/06/12 07:50:07;;;;;;;128.02;116.75;;;;;;;21.11;100.00;100736.13;4996149;28;20061;-84
2022/06/12 07:52:34;;;;;;;125.95;114.85;;;;;;;21.00;100.00;100745.38;4996170;28;20038;-84
2022/06/12 07:55:02;;;;;;;136.23;124.90;;;;;;;20.78;100.00;100757.25;4999596;28;20054;-84
2022/06/12 07:57:28;;;;;;;118.70;107.78;;;;;;;20.58;100.00;100760.81;5008039;28;20081;-83
2022/06/12 07:59:55;;;;;;;119.70;109.32;;;;;;;20.94;100.00;100755.38;4994341;28;20047;-84
2022/06/12 08:02:22;;;;;;;129.68;118.57;;;;;;;20.92;100.00;100751.31;4986538;28;20074;-84
2022/06/12 08:04:52;;;;;;;147.18;133.32;;;;;;;20.92;100.00;100749.41;4990036;28;20042;-85
2022/06/12 08:07:19;;;;;;;137.15;124.35;;;;;;;21.21;100.00;100743.38;4996611;28;20062;-84
2022/06/12 08:09:46;;;;;;;146.00;132.60;;;;;;;21.04;100.00;100741.81;4995171;28;20054;-84
2022/06/12 08:12:14;;;;;;;135.40;122.93;;;;;;;21.39;100.00;100725.78;4998834;28;20434;-85
2022/06/12 08:14:41;;;;;;;128.43;116.53;;;;;;;21.63;100.00;100731.31;4989778;28;20058;-85
2022/06/12 08:17:08;;;;;;;90.55;81.35;;;;;;;22.18;100.00;100732.88;4989001;28;20043;-84
2022/06/12 08:20:30;;;;;;;113.30;101.15;;;;;;;22.19;100.00;100733.69;4997449;28;20057;-84
2022/06/12 08:23:03;;;;;;;124.50;111.17;;;;;;;21.88;100.00;100727.66;4997319;28;20553;-85
2022/06/12 08:25:32;;;;;;;151.20;135.00;;;;;;;21.83;100.00;100725.78;5000255;28;20057;-84
2022/06/12 08:28:00;;;;;;;117.82;105.60;;;;;;;22.77;100.00;100724.75;4993867;28;20038;-84
2022/06/12 08:30:27;;;;;;;118.72;106.45;;;;;;;22.74;100.00;100728.03;4998510;28;20047;-86
2022/06/12 08:32:57;;;;;;;129.98;116.97;;;;;;;22.21;100.00;100731.50;5006240;28;20043;-86
2022/06/12 08:35:29;;;;;;;125.70;113.05;;;;;;;22.11;100.00;100731.53;4997961;28;20419;-84
2022/06/12 08:37:56;;;;;;;132.83;120.13;;;;;;;22.18;100.00;100741.00;5000301;28;20046;-84
2022/06/12 08:40:33;;;;;;;137.27;123.95;;;;;;;22.20;100.00;100743.41;4995228;28;20061;-85
2022/06/12 08:43:26;;;;;;;141.15;126.80;;;;;;;22.36;100.00;100742.19;5000322;28;20046;-85
2022/06/12 08:46:08;;;;;;;99.57;88.80;;;;;;;22.70;100.00;100745.94;4997059;28;20121;-85
2022/06/12 08:48:48;;;;;;;94.78;87.45;;;;;;;22.80;100.00;100732.28;5001887;28;20045;-85
2022/06/12 08:51:20;;;;;;;57.15;52.55;;;;;;;23.31;100.00;100726.31;4988972;28;20053;-85
2022/06/12 08:53:52;;;;;;;75.32;69.22;;;;;;;23.15;100.00;100738.41;4990659;28;20050;-85
2022/06/12 08:56:25;;;;;;;62.42;57.35;;;;;;;23.28;100.00;100722.28;4990735;28;20074;-85
2022/06/12 08:58:57;;;;;;;77.00;71.30;;;;;;;23.31;100.00;100737.16;4994134;28;20146;-85
2022/06/12 09:01:25;;;;;;;75.83;69.73;;;;;;;23.38;100.00;100734.06;4992972;28;20054;-84
2022/06/12 09:03:55;;;;;;;111.78;103.15;;;;;;;23.11;100.00;100743.59;4996384;28;20545;-85
2022/06/12 09:06:48;;;;;;;97.55;89.95;;;;;;;23.31;100.00;100721.69;4995333;28;20089;-85
2022/06/12 09:09:23;;;;;;;119.78;110.28;;;;;;;23.68;100.00;100724.72;4981389;28;20047;-85
2022/06/12 09:11:58;;;;;;;112.03;103.32;;;;;;;23.52;100.00;100726.84;4997415;28;20085;-85
2022/06/12 09:14:48;;;;;;;109.43;100.28;;;;;;;23.53;100.00;100718.41;5002174;28;20089;-85
2022/06/12 09:17:31;;;;;;;76.30;69.88;;;;;;;23.97;100.00;100711.81;4995447;28;20486;-85
2022/06/12 09:20:11;;;;;;;109.22;100.43;;;;;;;23.71;100.00;100713.31;5001635;28;20074;-85
2022/06/12 09:22:48;;;;;;;100.13;91.72;;;;;;;23.85;100.00;100714.19;4997648;28;20415;-85
2022/06/12 09:25:22;;;;;;;73.90;68.15;;;;;;;23.98;100.00;100709.91;5005665;28;20046;-85
2022/06/12 09:28:00;;;;;;;60.38;55.50;;;;;;;24.23;100.00;100708.69;4997578;28;20046;-86
2022/06/12 09:30:37;;;;;;;88.38;81.45;;;;;;;24.37;100.00;100720.38;5005807;28;20058;-86
2022/06/12 09:33:13;;;;;;;63.72;58.70;;;;;;;24.55;100.00;100712.50;4991369;28;20119;-85
2022/06/12 09:35:57;;;;;;;63.25;57.92;;;;;;;24.35;100.00;100709.00;4992298;28;20046;-86
2022/06/12 09:38:39;;;;;;;77.30;71.10;;;;;;;24.57;100.00;100704.84;4990527;28;20129;-85
2022/06/12 09:41:12;;;;;;;52.65;48.47;;;;;;;24.08;100.00;100698.88;4991623;28;20060;-85
2022/06/12 09:43:52;;;;;;;55.42;51.50;;;;;;;24.07;100.00;100707.34;4979461;28;20043;-85
2022/06/12 09:46:34;;;;;;;81.28;74.93;;;;;;;24.28;100.00;100707.81;4993484;28;20100;-85
2022/06/12 09:49:18;;;;;;;60.28;55.63;;;;;;;24.50;100.00;100694.38;4993504;28;20525;-85
2022/06/12 09:52:03;;;;;;;83.07;76.78;;;;;;;25.00;100.00;100689.09;4993653;28;20042;-86
2022/06/12 09:54:43;;;;;;;100.00;92.30;;;;;;;24.70;100.00;100695.94;5006545;28;20042;-86
2022/06/12 09:57:26;;;;;;;77.38;71.90;;;;;;;24.68;100.00;100689.97;5001202;28;20046;-85
2022/06/12 10:00:05;;;;;;;104.72;97.07;;;;;;;26.24;100.00;100680.53;4996819;28;20051;-85
2022/06/12 10:02:47;;;;;;;97.97;90.28;;;;;;;25.45;100.00;100678.38;5003021;28;20136;-85
2022/06/12 10:05:24;;;;;;;44.55;41.05;;;;;;;25.00;100.00;100671.97;5000459;28;20066;-86
2022/06/12 10:07:58;;;;;;;97.97;90.50;;;;;;;25.80;100.00;100673.97;4993363;28;20078;-86
2022/06/12 10:10:33;;;;;;;72.53;67.15;;;;;;;25.01;100.00;100658.09;4998437;28;20139;-86
2022/06/12 10:13:17;;;;;;;;;;;;;;;;;;;;;
2022/06/12 10:15:51;;;;;;;42.28;38.67;;;;;;;24.96;100.00;100658.19;4986664;28;20068;-84
2022/06/12 10:18:29;;;;;;;63.13;58.15;;;;;;;26.20;100.00;100656.97;4993701;28;20506;-85
2022/06/12 10:21:07;;;;;;;43.65;40.53;;;;;;;25.33;100.00;100638.13;4997840;28;20054;-85
2022/06/12 10:23:34;;;;;;;39.10;36.17;;;;;;;25.45;100.00;100634.88;4639844;28;10000414;-84
2022/06/12 10:26:14;;;;;;;71.85;66.65;;;;;;;26.15;100.00;100629.91;4984716;28;20058;-83
2022/06/12 10:28:44;;;;;;;47.00;43.75;;;;;;;25.56;100.00;100628.06;4990520;28;20055;-85
2022/06/12 10:31:34;;;;;;;51.22;47.42;;;;;;;26.14;100.00;100625.56;4992492;28;20065;-86
2022/06/12 10:34:16;;;;;;;65.10;60.60;;;;;;;25.19;100.00;100621.03;4987715;28;20055;-85
2022/06/12 10:36:45;;;;;;;51.05;47.25;;;;;;;25.44;100.00;100618.84;4987853;28;20527;-85
2022/06/12 10:39:20;;;;;;;46.60;43.13;;;;;;;25.61;100.00;100612.75;4993132;28;20062;-85
2022/06/12 10:41:51;;;;;;;43.53;40.13;;;;;;;25.42;100.00;100615.63;4986469;28;20042;-85
2022/06/12 10:44:33;;;;;;;59.60;55.50;;;;;;;26.33;100.00;100617.19;4989895;28;20053;-85
2022/06/12 10:47:44;;;;;;;50.53;46.80;;;;;;;25.95;100.00;100612.19;4985100;28;20052;-86
2022/06/12 10:50:27;;;;;;;58.55;53.70;;;;;;;25.31;100.00;100612.34;4985910;28;20454;-85
2022/06/12 10:53:07;;;;;;;64.40;54.85;;;;;;;25.91;100.00;100611.22;4992882;28;20051;-87
2022/06/12 10:55:51;;;;;;;59.85;50.92;;;;;;;26.50;100.00;100609.88;5001453;28;20116;-86
2022/06/12 10:59:03;;;;;;;60.67;54.75;;;;;;;26.58;100.00;100604.81;4993644;28;20056;-84
2022/06/12 11:01:38;;;;;;;71.55;64.65;;;;;;;27.32;100.00;100599.31;4998246;28;20120;-86
2022/06/12 11:04:19;;;;;;;71.93;64.38;;;;;;;26.71;100.00;100593.75;4999874;28;20039;-85
2022/06/12 11:06:55;;;;;;;62.10;55.45;;;;;;;26.32;100.00;100588.34;4997081;28;20042;-85
2022/06/12 11:09:45;;;;;;;65.40;58.85;;;;;;;27.47;100.00;100586.31;4990891;28;20050;-86
2022/06/12 11:12:30;;;;;;;62.55;56.28;;;;;;;26.89;100.00;100583.69;4992119;28;20054;-86
2022/06/12 11:15:10;;;;;;;59.17;53.45;;;;;;;26.85;100.00;100571.06;4989458;28;20125;-86
2022/06/12 11:17:59;;;;;;;58.05;51.72;;;;;;;26.94;100.00;100569.13;4992766;28;20097;-86
2022/06/12 11:20:45;;;;;;;59.17;53.38;;;;;;;27.26;100.00;100567.06;4992764;28;20197;-85
2022/06/12 11:23:46;;;;;;;64.15;57.97;;;;;;;26.94;100.00;100563.69;4985614;28;20050;-85
2022/06/12 11:26:27;;;;;;;59.20;52.90;;;;;;;27.75;100.00;100563.00;4970172;28;20125;-84
2022/06/12 11:29:06;;;;;;;65.95;59.15;;;;;;;27.19;100.00;100553.94;4978490;28;20058;-84
2022/06/12 11:31:51;;;;;;;60.22;54.40;;;;;;;27.40;100.00;100562.25;4984928;28;20050;-84
2022/06/12 11:34:33;;;;;;;63.70;56.88;;;;;;;27.95;100.00;100553.31;4988883;28;20058;-87
2022/06/12 11:37:08;;;;;;;;;;;;;;;27.60;100.00;100553.41;4988503;28;20050;-88
2022/06/12 11:40:04;;;;;;;62.85;57.45;;;;;;;27.26;100.00;100542.53;4984846;28;19933;-84